createdAt,value
2022-10-05T00:00:59.603Z,63.20
2022-10-05T00:03:30.231Z,63.80
2022-10-05T00:05:57.336Z,63.20
2022-10-05T00:08:25.512Z,63.30
2022-10-05T00:10:52.529Z,63.40
2022-10-05T00:13:24.907Z,63.80
2022-10-05T00:15:57.604Z,62.20
2022-10-05T00:18:24.209Z,63.30
2022-10-05T00:20:50.786Z,63.40
2022-10-05T00:23:22.979Z,63.50
2022-10-05T00:25:49.557Z,62.50
2022-10-05T00:28:17.890Z,64.00
2022-10-05T00:30:44.509Z,64.10
2022-10-05T00:33:11.071Z,63.90
2022-10-05T00:35:37.726Z,64.10
2022-10-05T00:38:04.318Z,64.20
2022-10-05T00:40:43.009Z,64.10
2022-10-05T00:43:16.159Z,62.70
2022-10-05T00:45:45.526Z,64.10
2022-10-05T00:48:21.342Z,64.20
2022-10-05T00:50:47.935Z,62.50
2022-10-05T00:53:29.822Z,63.60
2022-10-05T00:56:06.090Z,62.50
2022-10-05T00:58:38.299Z,62.50
2022-10-05T01:01:12.760Z,63.80
2022-10-05T01:03:51.740Z,63.10
2022-10-05T01:06:18.288Z,63.00
2022-10-05T01:08:55.803Z,64.00
2022-10-05T01:11:29.875Z,62.50
2022-10-05T01:14:04.711Z,63.70
2022-10-05T01:16:49.850Z,62.40
2022-10-05T01:19:44.421Z,62.40
2022-10-05T01:22:20.049Z,62.40
2022-10-05T01:24:59.496Z,62.30
2022-10-05T01:27:44.638Z,62.30
2022-10-05T01:30:16.848Z,62.30
2022-10-05T01:32:55.625Z,63.30
2022-10-05T01:35:41.028Z,62.30
2022-10-05T01:38:24.318Z,62.40
2022-10-05T01:40:53.796Z,62.30
2022-10-05T01:43:29.644Z,62.30
2022-10-05T01:46:15.027Z,62.40
2022-10-05T01:48:53.906Z,62.30
2022-10-05T01:51:26.518Z,62.40
2022-10-05T01:53:56.119Z,62.40
2022-10-05T01:56:28.988Z,62.30
2022-10-05T01:59:02.355Z,63.40
2022-10-05T02:01:47.214Z,63.70
2022-10-05T02:04:56.421Z,62.40
2022-10-05T02:07:14.592Z,62.40
2022-10-05T02:09:47.984Z,63.50
2022-10-05T02:12:19.365Z,63.40
2022-10-05T02:14:48.766Z,63.40
2022-10-05T02:17:18.282Z,63.40
2022-10-05T02:19:47.431Z,63.40
2022-10-05T02:22:32.355Z,63.40
2022-10-05T02:25:01.387Z,62.30
2022-10-05T02:27:29.840Z,63.40
2022-10-05T02:30:01.348Z,63.40
2022-10-05T02:32:29.549Z,63.40
2022-10-05T02:35:01.214Z,63.40
2022-10-05T02:37:27.857Z,63.40
2022-10-05T02:40:00.610Z,63.30
2022-10-05T02:42:30.247Z,62.30
2022-10-05T02:44:56.886Z,62.30
2022-10-05T02:47:30.258Z,63.30
2022-10-05T02:50:00.499Z,63.30
2022-10-05T02:52:33.948Z,63.50
2022-10-05T02:55:19.180Z,63.30
2022-10-05T02:58:02.042Z,62.20
2022-10-05T03:00:31.604Z,62.20
2022-10-05T03:02:58.168Z,63.20
2022-10-05T03:05:34.046Z,63.20
2022-10-05T03:08:00.594Z,62.20
2022-10-05T03:10:30.193Z,63.10
2022-10-05T03:13:15.572Z,62.30
2022-10-05T03:15:54.685Z,62.20
2022-10-05T03:18:31.009Z,62.30
2022-10-05T03:21:03.289Z,62.30
2022-10-05T03:23:48.143Z,63.30
2022-10-05T03:26:33.631Z,62.30
2022-10-05T03:29:05.511Z,62.30
2022-10-05T03:31:54.413Z,63.20
2022-10-05T03:34:20.980Z,62.30
2022-10-05T03:36:50.320Z,63.20
2022-10-05T03:39:19.914Z,62.30
2022-10-05T03:42:05.245Z,62.30
2022-10-05T03:44:31.805Z,62.30
2022-10-05T03:47:10.856Z,63.30
2022-10-05T03:49:56.466Z,62.80
2022-10-05T03:52:35.894Z,62.20
2022-10-05T03:55:05.190Z,62.40
2022-10-05T03:57:35.013Z,63.40
2022-10-05T04:00:01.590Z,63.40
2022-10-05T04:02:30.713Z,63.40
2022-10-05T04:05:12.398Z,63.50
2022-10-05T04:07:48.195Z,62.40
2022-10-05T04:10:21.715Z,62.50
2022-10-05T04:12:51.509Z,63.40
2022-10-05T04:15:21.548Z,63.50
2022-10-05T04:17:58.005Z,63.60
2022-10-05T04:20:45.157Z,62.50
2022-10-05T04:23:19.217Z,62.50
2022-10-05T04:25:48.594Z,62.50
2022-10-05T04:28:31.934Z,63.50
2022-10-05T04:31:00.163Z,62.60
2022-10-05T04:33:27.139Z,63.60
2022-10-05T04:35:59.544Z,63.70
2022-10-05T04:38:43.706Z,63.00
2022-10-05T04:41:29.116Z,63.00
2022-10-05T04:44:01.528Z,62.60
2022-10-05T04:46:28.143Z,63.10
2022-10-05T04:49:13.586Z,63.60
2022-10-05T04:51:50.883Z,62.60
2022-10-05T04:54:20.920Z,62.60
2022-10-05T04:56:52.906Z,62.60
2022-10-05T04:59:39.992Z,63.70
2022-10-05T05:02:06.751Z,62.60
2022-10-05T05:04:48.232Z,63.70
2022-10-05T05:07:36.106Z,62.60
2022-10-05T05:10:05.659Z,62.60
2022-10-05T05:12:51.091Z,62.70
2022-10-05T05:15:36.010Z,62.60
2022-10-05T05:18:13.253Z,62.70
2022-10-05T05:20:45.858Z,63.70
2022-10-05T05:23:33.128Z,62.60
2022-10-05T05:26:02.764Z,62.70
2022-10-05T05:28:29.449Z,62.70
2022-10-05T05:30:59.016Z,63.70
2022-10-05T05:33:31.838Z,62.70
2022-10-05T05:36:01.269Z,64.00
2022-10-05T05:38:34.012Z,62.90
2022-10-05T05:41:09.140Z,62.70
2022-10-05T05:43:35.716Z,62.80
2022-10-05T05:46:14.585Z,65.90
2022-10-05T05:48:42.868Z,64.10
2022-10-05T05:51:30.911Z,65.90
2022-10-05T05:54:18.020Z,65.20
2022-10-05T05:56:51.537Z,66.60
2022-10-05T05:59:38.358Z,67.10
2022-10-05T06:02:08.163Z,67.30
2022-10-05T06:04:39.038Z,67.50
2022-10-05T06:07:05.809Z,66.10
2022-10-05T06:09:51.532Z,67.40
2022-10-05T06:12:33.548Z,66.10
2022-10-05T06:15:03.251Z,66.20
2022-10-05T06:17:32.932Z,66.30
2022-10-05T06:20:05.228Z,66.40
2022-10-05T06:22:40.712Z,67.80
2022-10-05T06:25:13.529Z,66.70
2022-10-05T06:28:00.525Z,66.80
2022-10-05T06:30:31.760Z,68.20
2022-10-05T06:33:16.485Z,68.00
2022-10-05T06:35:46.097Z,66.60
2022-10-05T06:38:15.905Z,66.80
2022-10-05T06:40:42.454Z,66.60
2022-10-05T06:43:15.598Z,67.90
2022-10-05T06:45:48.303Z,68.10
2022-10-05T06:48:18.018Z,66.90
2022-10-05T06:50:46.164Z,67.00
2022-10-05T06:53:31.476Z,68.50
2022-10-05T06:56:09.323Z,67.20
2022-10-05T06:58:41.663Z,67.50
2022-10-05T07:01:12.688Z,67.20
2022-10-05T07:03:48.554Z,69.00
2022-10-05T07:06:25.823Z,67.70
2022-10-05T07:09:04.641Z,67.50
2022-10-05T07:11:56.397Z,67.30
2022-10-05T07:14:28.039Z,67.00
2022-10-05T07:17:21.048Z,67.30
2022-10-05T07:20:07.624Z,66.50
2022-10-05T07:22:52.760Z,66.20
2022-10-05T07:25:21.323Z,66.10
2022-10-05T07:27:55.005Z,67.10
2022-10-05T07:30:21.725Z,66.00
2022-10-05T07:33:06.813Z,67.10
2022-10-05T07:36:12.159Z,66.10
2022-10-05T07:38:43.063Z,67.20
2022-10-05T07:41:22.906Z,67.50
2022-10-05T07:44:02.376Z,66.50
2022-10-05T07:46:56.136Z,66.60
2022-10-05T07:49:26.431Z,66.60
2022-10-05T07:51:56.673Z,67.90
2022-10-05T07:54:41.659Z,68.00
2022-10-05T07:57:20.116Z,66.90
2022-10-05T07:59:55.796Z,67.10
2022-10-05T08:02:25.217Z,66.70
2022-10-05T08:05:03.880Z,67.10
2022-10-05T08:07:33.500Z,66.70
2022-10-05T08:10:18.807Z,67.90
2022-10-05T08:12:58.877Z,66.80
2022-10-05T08:15:35.237Z,67.10
2022-10-05T08:18:04.645Z,67.60
2022-10-05T08:20:49.356Z,68.80
2022-10-05T08:23:19.939Z,67.60
2022-10-05T08:25:58.210Z,69.00
2022-10-05T08:28:24.868Z,67.90
2022-10-05T08:31:21.066Z,69.20
2022-10-05T08:34:20.965Z,68.30
2022-10-05T08:37:06.980Z,68.10
2022-10-05T08:39:39.078Z,68.10
2022-10-05T08:42:08.739Z,69.10
2022-10-05T08:44:35.257Z,68.30
2022-10-05T08:47:08.106Z,68.80
2022-10-05T08:49:53.498Z,67.60
2022-10-05T08:52:26.059Z,67.60
2022-10-05T08:54:55.455Z,67.60
2022-10-05T08:57:25.017Z,67.60
2022-10-05T09:00:03.824Z,67.90
2022-10-05T09:02:45.827Z,68.00
2022-10-05T09:05:24.423Z,68.00
2022-10-05T09:08:09.784Z,68.00
2022-10-05T09:10:39.410Z,68.00
2022-10-05T09:13:24.381Z,68.40
2022-10-05T09:16:06.311Z,67.90
2022-10-05T09:18:35.837Z,67.80
2022-10-05T09:21:06.467Z,68.10
2022-10-05T09:23:33.043Z,69.20
2022-10-05T09:26:03.774Z,68.90
2022-10-05T09:28:49.084Z,68.80
2022-10-05T09:31:31.570Z,67.30
2022-10-05T09:34:17.169Z,67.30
2022-10-05T09:37:02.429Z,67.00
2022-10-05T09:39:47.361Z,67.40
2022-10-05T09:42:17.006Z,66.70
2022-10-05T09:44:56.130Z,66.40
2022-10-05T09:47:31.644Z,66.40
2022-10-05T09:50:04.452Z,66.20
2022-10-05T09:52:40.103Z,66.10
2022-10-05T09:55:25.550Z,66.10
2022-10-05T09:58:04.447Z,65.90
2022-10-05T10:00:58.837Z,65.90
2022-10-05T10:03:45.525Z,66.90
2022-10-05T10:06:24.369Z,65.70
2022-10-05T10:09:09.838Z,65.50
2022-10-05T10:11:38.355Z,65.40
